Time;durP1;ratioP1;P1;durP2;ratioP2;P2;SDS_P1;SDS_P2;PMS_P1;PMS_P2;Temp;Humidity;BMP_temperature;BMP_pressure;BME280_temperature;BME280_humidity;BME280_pressure;Samples;Min_cycle;Max_cycle;Signal;HPM_P1;HPM_P2
2022/06/17 00:01:09;;;;;;;5.90;3.25;;;;;;;16.51;100.00;98444.98;1667158;84;28110;-84
2022/06/17 00:03:37;;;;;;;5.40;3.37;;;;;;;16.52;100.00;98441.84;1656729;84;28087;-86
2022/06/17 00:06:05;;;;;;;5.78;3.15;;;;;;;16.49;100.00;98442.12;1660361;84;28158;-84
2022/06/17 00:08:35;;;;;;;5.83;3.40;;;;;;;16.44;100.00;98443.04;1689327;83;28159;-84
2022/06/17 00:11:02;;;;;;;6.55;3.60;;;;;;;16.39;100.00;98442.16;1660224;85;28004;-84
2022/06/17 00:13:31;;;;;;;6.85;3.67;;;;;;;16.37;100.00;98435.34;1662782;84;28138;-84
2022/06/17 00:15:58;;;;;;;5.67;4.03;;;;;;;16.34;100.00;98435.15;1657434;84;28148;-84
2022/06/17 00:18:24;;;;;;;6.85;3.80;;;;;;;16.28;100.00;98431.27;1660990;84;28142;-88
2022/06/17 00:20:51;;;;;;;7.42;4.28;;;;;;;16.23;100.00;98435.31;1659232;85;28133;-88
2022/06/17 00:23:21;;;;;;;7.10;3.80;;;;;;;16.15;100.00;98441.30;1660090;85;28083;-89
2022/06/17 00:25:48;;;;;;;6.50;3.85;;;;;;;16.11;100.00;98446.52;1658268;84;28039;-88
2022/06/17 00:28:23;;;;;;;8.93;4.03;;;;;;;16.05;100.00;98447.08;1661400;84;28076;-87
2022/06/17 00:30:50;;;;;;;6.47;4.50;;;;;;;16.01;100.00;98435.14;1683826;83;28237;-87
2022/06/17 00:33:18;;;;;;;6.47;4.00;;;;;;;15.96;100.00;98443.98;1655551;86;28568;-88
2022/06/17 00:35:51;;;;;;;5.70;4.17;;;;;;;15.93;100.00;98444.23;1681943;83;28094;-89
2022/06/17 00:38:24;;;;;;;9.33;5.28;;;;;;;15.90;100.00;98447.17;1655172;85;28041;-86
2022/06/17 00:40:53;;;;;;;7.58;4.28;;;;;;;15.88;100.00;98449.11;1640025;85;28169;-86
2022/06/17 00:43:31;;;;;;;8.25;3.85;;;;;;;15.83;100.00;98452.17;1682583;83;28090;-86
2022/06/17 00:46:17;;;;;;;10.60;5.30;;;;;;;15.81;100.00;98453.30;1660050;84;28088;-85
2022/06/17 00:48:48;;;;;;;8.18;4.55;;;;;;;15.81;100.00;98458.58;1656367;85;28180;-87
2022/06/17 00:51:18;;;;;;;15.10;5.50;;;;;;;15.81;100.00;98454.62;1686170;83;28115;-86
2022/06/17 00:53:53;;;;;;;8.93;4.78;;;;;;;15.81;100.00;98442.74;1652937;85;30031;-86
2022/06/17 00:56:26;;;;;;;10.78;5.12;;;;;;;15.82;100.00;98448.34;1680871;83;28030;-86
2022/06/17 00:59:08;;;;;;;9.83;5.58;;;;;;;15.82;100.00;98452.30;1674524;83;28149;-86
2022/06/17 01:01:47;;;;;;;7.95;5.08;;;;;;;15.81;100.00;98463.38;1720259;81;28111;-85
2022/06/17 01:04:18;;;;;;;11.05;4.72;;;;;;;15.80;100.00;98457.73;1723362;81;28080;-89
2022/06/17 01:06:53;;;;;;;8.80;4.83;;;;;;;15.79;100.00;98456.55;1720607;81;36906;-89
2022/06/17 01:12:12;;;;;;;8.28;4.72;;;;;;;15.74;100.00;98466.70;1718609;81;28084;-88
2022/06/17 01:14:42;;;;;;;9.98;4.37;;;;;;;15.71;100.00;98466.98;1724770;81;28128;-89
2022/06/17 01:17:11;;;;;;;8.88;4.53;;;;;;;15.64;100.00;98468.02;1720780;81;28092;-88
2022/06/17 01:19:44;;;;;;;7.67;4.50;;;;;;;15.67;100.00;98468.20;1721800;81;28087;-89
2022/06/17 01:22:29;;;;;;;7.90;4.58;;;;;;;15.75;100.00;98476.28;1682463;84;28085;-85
2022/06/17 01:25:17;;;;;;;7.87;4.53;;;;;;;15.78;100.00;98478.15;1723005;81;28078;-86
2022/06/17 01:27:46;;;;;;;8.88;4.10;;;;;;;15.78;100.00;98475.51;1691352;83;28182;-87
2022/06/17 01:30:17;;;;;;;5.85;3.65;;;;;;;15.79;100.00;98478.98;1684927;83;28148;-89
2022/06/17 01:32:56;;;;;;;5.08;2.83;;;;;;;15.78;100.00;98483.91;1691331;84;28491;-87
2022/06/17 01:35:26;;;;;;;8.43;3.98;;;;;;;15.78;100.00;98483.91;1691426;84;28120;-87
2022/06/17 01:37:52;;;;;;;6.03;3.65;;;;;;;15.80;100.00;98484.13;1706052;81;28096;-84
2022/06/17 01:40:20;;;;;;;4.53;3.00;;;;;;;15.81;100.00;98485.80;1719233;81;28147;-84
2022/06/17 01:42:54;;;;;;;3.83;3.33;;;;;;;15.76;100.00;98484.55;1722887;82;28080;-85
2022/06/17 01:45:21;;;;;;;6.53;3.17;;;;;;;15.77;100.00;98487.52;1720071;81;28043;-86
2022/06/17 01:47:48;;;;;;;5.35;3.55;;;;;;;15.78;100.00;98490.02;1718130;82;28166;-87
2022/06/17 01:50:22;;;;;;;4.35;3.20;;;;;;;15.79;100.00;98492.17;1710712;81;28084;-86
2022/06/17 01:52:59;;;;;;;5.90;3.33;;;;;;;15.77;100.00;98496.27;1681040;84;28041;-84
2022/06/17 01:55:46;;;;;;;4.75;3.25;;;;;;;15.76;100.00;98500.38;1710463;82;28695;-83
2022/06/17 01:58:18;;;;;;;7.53;3.47;;;;;;;15.72;100.00;98499.80;1678241;83;28156;-84
2022/06/17 02:00:47;;;;;;;5.03;3.17;;;;;;;15.65;100.00;98501.83;1719238;81;28155;-88
2022/06/17 02:03:28;;;;;;;3.72;3.40;;;;;;;15.60;100.00;98495.62;1714123;81;28164;-84
2022/06/17 02:05:58;;;;;;;5.50;3.12;;;;;;;15.56;100.00;98500.83;1725054;81;28128;-84
2022/06/17 02:08:24;;;;;;;5.22;3.10;;;;;;;15.53;100.00;98504.23;1683622;83;28077;-86
2022/06/17 02:10:51;;;;;;;6.35;2.75;;;;;;;15.49;100.00;98511.56;1683950;85;28046;-86
2022/06/17 02:13:17;;;;;;;5.03;3.30;;;;;;;15.45;100.00;98517.58;1711081;81;28211;-86
2022/06/17 02:15:52;;;;;;;4.60;3.08;;;;;;;15.40;100.00;98518.95;1707023;81;28075;-86
2022/06/17 02:18:20;;;;;;;5.22;3.25;;;;;;;15.37;100.00;98520.07;1686930;83;28080;-86
2022/06/17 02:20:50;;;;;;;6.12;3.70;;;;;;;15.36;100.00;98522.83;1705885;81;28155;-86
2022/06/17 02:23:16;;;;;;;5.28;4.17;;;;;;;15.34;100.00;98522.95;1708700;82;28154;-86
2022/06/17 02:25:47;;;;;;;6.22;3.95;;;;;;;15.35;100.00;98528.59;1704887;83;28124;-87
2022/06/17 02:28:16;;;;;;;;;;;;;;;15.38;100.00;98535.41;1689514;83;28097;-85
2022/06/17 02:30:46;;;;;;;5.83;4.50;;;;;;;15.39;100.00;98531.78;1688926;83;25093;-89
2022/06/17 02:33:14;;;;;;;5.83;4.17;;;;;;;15.37;100.00;98541.65;1694386;83;28099;-84
2022/06/17 02:35:47;;;;;;;5.92;4.20;;;;;;;15.38;100.00;98542.00;1681086;83;28246;-85
2022/06/17 02:38:20;;;;;;;5.00;4.08;;;;;;;15.37;100.00;98547.77;1689849;82;28105;-88
2022/06/17 02:41:00;;;;;;;6.55;4.90;;;;;;;15.38;100.00;98545.96;1713011;81;28077;-88
2022/06/17 02:43:29;;;;;;;7.05;4.15;;;;;;;15.42;100.00;98553.47;1715187;81;28127;-88
2022/06/17 02:46:02;;;;;;;7.58;4.65;;;;;;;15.44;100.00;98551.51;1716053;81;28068;-88
2022/06/17 02:48:49;;;;;;;6.12;3.90;;;;;;;15.45;100.00;98552.34;1715365;81;28093;-86
2022/06/17 02:51:16;;;;;;;6.97;4.78;;;;;;;15.47;100.00;98559.65;1719969;81;28114;-85
2022/06/17 02:53:43;;;;;;;7.22;4.90;;;;;;;15.46;100.00;98554.02;1714366;81;28172;-85
2022/06/17 02:56:16;;;;;;;5.10;4.15;;;;;;;15.47;100.00;98552.58;1712838;81;28110;-86
2022/06/17 02:59:05;;;;;;;6.83;4.47;;;;;;;15.48;100.00;98556.89;1708386;81;28083;-86
2022/06/17 03:01:35;;;;;;;6.20;4.15;;;;;;;15.51;100.00;98557.09;1706268;81;28108;-86
2022/06/17 03:04:08;;;;;;;10.30;5.10;;;;;;;15.55;100.00;98560.34;1709587;81;28080;-85
2022/06/17 03:06:38;;;;;;;10.35;4.95;;;;;;;15.58;100.00;98561.37;1707543;81;28109;-83
2022/06/17 03:09:23;;;;;;;7.95;4.55;;;;;;;15.60;100.00;98571.31;1705061;81;28088;-87
2022/06/17 03:11:56;;;;;;;11.10;4.50;;;;;;;15.61;100.00;98572.48;1709951;81;28022;-83
2022/06/17 03:14:26;;;;;;;7.35;4.37;;;;;;;15.63;100.00;98581.59;1705135;81;28119;-88
2022/06/17 03:16:55;;;;;;;6.05;4.03;;;;;;;15.64;100.00;98580.14;1706731;81;28124;-85
2022/06/17 03:19:23;;;;;;;9.98;4.70;;;;;;;15.66;100.00;98579.50;1693796;83;28127;-83
2022/06/17 03:21:49;;;;;;;4.75;4.22;;;;;;;15.68;100.00;98582.85;1707982;81;28084;-83
2022/06/17 03:24:25;;;;;;;8.33;4.67;;;;;;;15.67;100.00;98586.94;1707139;82;28066;-87
2022/06/17 03:26:57;;;;;;;8.95;5.05;;;;;;;15.69;100.00;98585.84;1706539;82;28073;-87
2022/06/17 03:29:26;;;;;;;6.92;4.62;;;;;;;15.70;100.00;98592.80;1689344;81;28088;-87
2022/06/17 03:32:05;;;;;;;7.65;4.85;;;;;;;15.70;100.00;98601.20;1676612;83;28098;-83
2022/06/17 03:34:37;;;;;;;6.70;4.50;;;;;;;15.70;100.00;98595.92;1706135;81;28116;-83
2022/06/17 03:37:07;;;;;;;7.45;4.28;;;;;;;15.74;100.00;98598.63;1704909;81;28082;-86
2022/06/17 03:39:40;;;;;;;7.72;5.03;;;;;;;15.72;100.00;98585.56;1707622;81;28120;-88
2022/06/17 03:42:15;;;;;;;5.55;4.87;;;;;;;15.77;100.00;98603.62;1708015;81;28096;-87
2022/06/17 03:44:48;;;;;;;5.62;4.33;;;;;;;15.82;100.00;98614.60;1677464;83;28117;-85
2022/06/17 03:47:18;;;;;;;8.35;4.70;;;;;;;15.86;100.00;98610.75;1721545;82;28080;-86
2022/06/17 03:50:00;;;;;;;6.75;3.95;;;;;;;15.93;100.00;98617.64;1718522;81;28484;-86
2022/06/17 03:52:33;;;;;;;;;;;;;;;15.95;100.00;98626.23;1691040;83;28122;-86
2022/06/17 03:55:00;;;;;;;6.05;4.85;;;;;;;15.97;100.00;98627.78;1684129;83;21950;-85
2022/06/17 03:57:29;;;;;;;7.90;5.22;;;;;;;16.01;100.00;98627.85;1686524;83;28106;-85
2022/06/17 03:59:57;;;;;;;7.80;4.28;;;;;;;16.01;100.00;98633.13;1686782;83;28053;-85
2022/06/17 04:02:29;;;;;;;7.72;4.15;;;;;;;16.02;100.00;98634.81;1685631;83;28094;-86
2022/06/17 04:04:53;;;;;;;6.75;4.37;;;;;;;16.00;100.00;98638.06;1708672;81;28131;-83
2022/06/17 04:07:19;;;;;;;9.55;5.25;;;;;;;15.97;100.00;98639.66;1705949;81;28115;-83
2022/06/17 04:09:53;;;;;;;8.25;5.10;;;;;;;15.98;100.00;98636.55;1707179;81;28080;-83
2022/06/17 04:12:26;;;;;;;8.55;5.03;;;;;;;16.00;100.00;98642.02;1708161;82;28005;-84
2022/06/17 04:14:57;;;;;;;7.30;4.78;;;;;;;16.00;100.00;98644.66;1677563;83;28086;-84
2022/06/17 04:17:35;;;;;;;7.67;6.87;;;;;;;16.06;100.00;98642.80;1717491;82;28183;-87
2022/06/17 04:20:22;;;;;;;6.35;4.65;;;;;;;16.13;100.00;98649.70;1722002;81;28013;-86
2022/06/17 04:22:53;;;;;;;7.22;4.95;;;;;;;16.14;100.00;98653.53;1722463;81;28089;-86
2022/06/17 04:25:24;;;;;;;7.13;3.53;;;;;;;16.12;100.00;98662.06;1709317;82;45868;-84
2022/06/17 04:27:58;;;;;;;6.17;3.30;;;;;;;16.09;100.00;98657.03;1705889;81;28168;-84
2022/06/17 04:30:30;;;;;;;5.55;4.67;;;;;;;16.10;100.00;98666.63;1706748;81;36216;-85
2022/06/17 04:33:03;;;;;;;9.38;5.33;;;;;;;16.13;100.00;98668.17;1705348;82;28143;-84
2022/06/17 04:35:29;;;;;;;7.58;5.58;;;;;;;16.10;100.00;98667.95;1710463;81;28028;-85
2022/06/17 04:37:55;;;;;;;6.67;4.90;;;;;;;16.17;100.00;98671.72;1693694;83;28088;-87
2022/06/17 04:40:31;;;;;;;7.67;5.08;;;;;;;16.20;100.00;98683.32;1695574;83;28083;-88
2022/06/17 04:42:59;;;;;;;7.30;4.55;;;;;;;16.23;100.00;98687.03;1703832;82;28075;-87
2022/06/17 04:45:29;;;;;;;11.10;4.83;;;;;;;16.25;100.00;98695.66;1710512;81;28187;-87
2022/06/17 04:47:57;;;;;;;5.80;4.45;;;;;;;16.25;100.00;98700.94;1721686;81;28122;-88
2022/06/17 04:50:26;;;;;;;7.10;4.45;;;;;;;16.23;100.00;98705.52;1705353;81;28113;-88
2022/06/17 04:52:54;;;;;;;7.37;4.78;;;;;;;16.24;100.00;98704.55;1707280;81;28079;-88
2022/06/17 04:55:24;;;;;;;8.18;4.40;;;;;;;16.24;100.00;98706.35;1706245;82;28112;-88
2022/06/17 04:57:55;;;;;;;5.50;4.30;;;;;;;16.23;100.00;98707.31;1706602;83;28098;-87
2022/06/17 05:00:25;;;;;;;9.23;4.25;;;;;;;16.21;100.00;98707.92;1694453;83;28115;-87
2022/06/17 05:02:52;;;;;;;8.40;4.20;;;;;;;16.21;100.00;98710.09;1719714;81;28098;-87
2022/06/17 05:05:39;;;;;;;7.30;4.50;;;;;;;16.21;100.00;98714.05;1690933;83;28026;-87
2022/06/17 05:08:07;;;;;;;;;;;;;;;16.23;100.00;98713.92;1700560;83;28091;-85
2022/06/17 05:10:35;;;;;;;;;;;;;;;16.24;100.00;98716.44;1696274;83;21974;-85
2022/06/17 05:13:06;;;;;;;;;;;;;;;16.20;100.00;98713.69;1719007;82;26066;-85
2022/06/17 05:15:32;;;;;;;4.43;3.50;;;;;;;16.15;100.00;98714.58;1716920;81;24413;-88
2022/06/17 05:17:58;;;;;;;4.90;3.70;;;;;;;16.20;100.00;98707.60;1716734;81;28371;-85
2022/06/17 05:20:30;;;;;;;6.30;3.55;;;;;;;16.24;100.00;98716.44;1714135;81;28110;-84
2022/06/17 05:23:06;;;;;;;5.45;3.60;;;;;;;16.24;100.00;98715.11;1708352;81;28219;-86
2022/06/17 05:25:38;;;;;;;5.97;3.65;;;;;;;16.27;100.00;98712.19;1715194;82;28067;-86
2022/06/17 05:28:07;;;;;;;5.15;3.50;;;;;;;16.28;100.00;98712.54;1716300;81;28154;-88
2022/06/17 05:30:37;;;;;;;5.60;3.60;;;;;;;16.35;100.00;98710.20;1716752;82;28134;-86
2022/06/17 05:33:03;;;;;;;5.78;3.80;;;;;;;16.38;100.00;98712.55;1714148;81;28183;-85
2022/06/17 05:35:29;;;;;;;5.62;3.58;;;;;;;16.38;100.00;98706.43;1715144;81;28121;-88
2022/06/17 05:37:56;;;;;;;7.83;3.35;;;;;;;16.43;100.00;98710.81;1719730;81;28149;-88
2022/06/17 05:40:22;;;;;;;6.05;3.90;;;;;;;16.58;100.00;98712.91;1720127;81;28016;-85
2022/06/17 05:42:50;;;;;;;7.12;4.00;;;;;;;16.70;100.00;98722.91;1718371;81;28196;-85
2022/06/17 05:45:24;;;;;;;6.37;4.12;;;;;;;16.84;100.00;98711.09;1689373;83;28152;-84
2022/06/17 05:47:52;;;;;;;5.45;3.42;;;;;;;16.96;100.00;98721.40;1719466;81;28068;-84
2022/06/17 05:50:20;;;;;;;18.40;10.15;;;;;;;17.10;100.00;98730.21;1720420;81;28000;-85
2022/06/17 05:52:56;;;;;;;7.08;4.12;;;;;;;17.23;100.00;98729.09;1717468;82;28073;-84
2022/06/17 05:55:24;;;;;;;7.17;3.65;;;;;;;17.31;100.00;98726.55;1720508;83;28018;-84
2022/06/17 05:57:51;;;;;;;5.35;3.52;;;;;;;17.38;100.00;98725.02;1724347;81;28143;-86
2022/06/17 06:00:18;;;;;;;3.75;3.00;;;;;;;17.43;100.00;98728.06;1653308;84;28060;-84
2022/06/17 06:02:46;;;;;;;5.90;3.22;;;;;;;17.44;100.00;98730.58;1658604;84;28050;-84
2022/06/17 06:05:16;;;;;;;6.05;3.08;;;;;;;17.47;100.00;98735.57;1667437;84;28103;-84
2022/06/17 06:07:48;;;;;;;5.37;3.55;;;;;;;17.55;100.00;98738.84;1699514;83;28071;-85
2022/06/17 06:10:16;;;;;;;6.15;3.00;;;;;;;17.64;100.00;98739.80;1691497;84;28111;-87
2022/06/17 06:12:54;;;;;;;6.33;3.35;;;;;;;17.70;100.00;98748.02;1688469;83;28112;-87
2022/06/17 06:15:23;;;;;;;6.03;3.00;;;;;;;17.76;100.00;98742.14;1685830;83;28154;-89
2022/06/17 06:17:49;;;;;;;6.72;2.95;;;;;;;17.86;100.00;98746.91;1687133;82;28083;-85
2022/06/17 06:20:17;;;;;;;6.25;2.85;;;;;;;17.96;100.00;98750.83;1684027;83;28149;-85
2022/06/17 06:22:43;;;;;;;4.67;2.90;;;;;;;17.97;100.00;98748.53;1686553;84;28132;-85
2022/06/17 06:25:12;;;;;;;5.40;2.87;;;;;;;17.96;100.00;98749.02;1686997;84;28053;-84
2022/06/17 06:27:39;;;;;;;6.17;3.22;;;;;;;17.97;100.00;98744.56;1684451;83;28226;-84
2022/06/17 06:30:07;;;;;;;6.05;2.95;;;;;;;18.03;100.00;98744.47;1694523;83;28072;-85
2022/06/17 06:32:34;;;;;;;5.95;3.72;;;;;;;18.08;100.00;98751.48;1682103;84;28101;-88
2022/06/17 06:35:00;;;;;;;4.58;2.77;;;;;;;18.13;100.00;98745.25;1687484;83;28164;-87
2022/06/17 06:37:26;;;;;;;5.42;2.62;;;;;;;18.14;100.00;98746.44;1687309;84;28111;-88
2022/06/17 06:39:53;;;;;;;3.50;2.67;;;;;;;18.16;100.00;98747.62;1690224;83;28005;-88
2022/06/17 06:42:20;;;;;;;5.17;2.75;;;;;;;18.19;100.00;98742.02;1686757;84;28201;-84
2022/06/17 06:44:46;;;;;;;3.90;2.30;;;;;;;18.23;100.00;98744.70;1691207;84;28173;-84
2022/06/17 06:47:12;;;;;;;5.10;2.83;;;;;;;18.25;100.00;98749.38;1684470;84;28163;-85
2022/06/17 06:49:40;;;;;;;4.53;2.67;;;;;;;18.14;100.00;98750.91;1663844;83;28153;-88
2022/06/17 06:52:06;;;;;;;4.92;2.58;;;;;;;18.27;100.00;98754.86;1690001;82;28091;-85
2022/06/17 06:54:32;;;;;;;3.67;3.08;;;;;;;18.39;100.00;98759.47;1685696;84;28002;-85
2022/06/17 06:57:01;;;;;;;6.10;2.55;;;;;;;18.43;100.00;98754.23;1687827;84;28410;-86
2022/06/17 06:59:28;;;;;;;4.42;2.10;;;;;;;18.45;100.00;98752.74;1679930;82;28099;-88
2022/06/17 07:01:54;;;;;;;4.62;2.33;;;;;;;18.48;100.00;98753.79;1685834;84;28146;-85
2022/06/17 07:04:21;;;;;;;4.03;2.05;;;;;;;18.51;100.00;98742.38;1689322;84;28006;-85
2022/06/17 07:06:47;;;;;;;6.15;1.98;;;;;;;18.49;100.00;98751.00;1735203;81;28076;-86
2022/06/17 07:09:13;;;;;;;2.40;1.80;;;;;;;18.56;100.00;98743.29;1721524;81;28266;-85
2022/06/17 07:11:40;;;;;;;2.58;1.80;;;;;;;18.63;100.00;98749.67;1721703;81;28079;-86
2022/06/17 07:14:07;;;;;;;3.80;2.00;;;;;;;18.66;100.00;98747.54;1725098;81;28192;-85
2022/06/17 07:16:40;;;;;;;5.20;1.90;;;;;;;18.64;100.00;98747.36;1716166;81;28100;-86
2022/06/17 07:19:10;;;;;;;4.30;1.87;;;;;;;18.66;100.00;98751.52;1723210;81;28174;-85
2022/06/17 07:21:40;;;;;;;3.42;1.70;;;;;;;18.64;100.00;98736.76;1727039;81;28117;-85
2022/06/17 07:24:08;;;;;;;3.33;1.32;;;;;;;18.71;100.00;98739.97;1725420;81;28097;-85
2022/06/17 07:26:34;;;;;;;2.83;1.20;;;;;;;18.83;100.00;98741.06;1720711;81;28343;-89
2022/06/17 07:29:03;;;;;;;4.72;1.32;;;;;;;18.89;100.00;98736.48;1729164;81;28084;-89
2022/06/17 07:31:29;;;;;;;2.75;1.10;;;;;;;18.96;100.00;98732.25;1720879;81;28065;-86
2022/06/17 07:33:58;;;;;;;2.77;1.50;;;;;;;19.08;100.00;98729.22;1722312;81;28186;-88
2022/06/17 07:42:07;;;;;;;2.77;1.60;;;;;;;19.42;100.00;98728.48;1728899;81;28070;-85
2022/06/17 07:44:35;;;;;;;3.17;1.20;;;;;;;19.43;100.00;98735.42;1719066;81;28200;-88
2022/06/17 07:47:03;;;;;;;2.15;1.30;;;;;;;19.42;100.00;98739.09;1722681;81;28072;-86
2022/06/17 07:49:30;;;;;;;2.95;1.50;;;;;;;19.34;100.00;98736.37;1719365;81;28055;-86
2022/06/17 07:51:58;;;;;;;1.87;1.60;;;;;;;19.29;100.00;98728.04;1720149;81;28100;-84
2022/06/17 07:54:24;;;;;;;2.85;1.50;;;;;;;19.44;100.00;98739.26;1696978;81;28150;-86
2022/06/17 07:56:51;;;;;;;3.72;1.30;;;;;;;19.55;100.00;98731.56;1718565;81;28512;-86
2022/06/17 07:59:16;;;;;;;1.42;1.17;;;;;;;19.68;100.00;98738.63;1720499;81;28194;-86
2022/06/17 08:01:43;;;;;;;3.70;1.00;;;;;;;19.84;100.00;98733.89;1712957;82;42173;-86
2022/06/17 08:04:12;;;;;;;2.22;1.35;;;;;;;20.02;100.00;98741.27;1724867;81;28063;-86
2022/06/17 08:06:38;;;;;;;3.95;1.20;;;;;;;20.02;100.00;98742.11;1724792;81;28211;-86
2022/06/17 08:09:08;;;;;;;1.75;0.93;;;;;;;19.95;100.00;98736.28;1712136;82;28151;-86
2022/06/17 08:11:34;;;;;;;1.65;1.30;;;;;;;19.99;100.00;98742.93;1710584;82;28177;-86
2022/06/17 08:14:00;;;;;;;2.22;1.17;;;;;;;19.92;100.00;98748.53;1712478;82;28533;-85
2022/06/17 08:16:29;;;;;;;1.95;1.00;;;;;;;19.92;100.00;98749.86;1713474;82;28063;-85
2022/06/17 08:18:55;;;;;;;1.42;0.80;;;;;;;19.90;100.00;98756.69;1712061;83;28183;-85
2022/06/17 08:21:21;;;;;;;4.45;1.10;;;;;;;19.95;100.00;98754.88;1709915;83;28091;-85
2022/06/17 08:23:57;;;;;;;3.70;1.07;;;;;;;20.02;100.00;98754.06;1725188;81;28175;-84
2022/06/17 08:26:25;;;;;;;1.75;0.72;;;;;;;20.08;100.00;98760.56;1712974;82;28184;-85
2022/06/17 08:28:52;;;;;;;4.00;1.17;;;;;;;20.02;100.00;98762.03;1721118;82;28119;-86
2022/06/17 08:31:21;;;;;;;2.65;1.07;;;;;;;20.08;100.00;98760.56;1725317;81;28076;-86
2022/06/17 08:33:48;;;;;;;3.10;1.00;;;;;;;20.28;100.00;98761.17;1725700;81;28106;-85
2022/06/17 08:36:19;;;;;;;3.17;0.93;;;;;;;20.41;100.00;98769.53;1725424;81;28482;-85
2022/06/17 08:38:51;;;;;;;4.00;1.00;;;;;;;20.48;100.00;98775.05;1724113;81;28098;-85
2022/06/17 08:41:32;;;;;;;;;;;;;;;20.60;100.00;98777.26;1719298;82;22004;-86
2022/06/17 08:44:09;;;;;;;;;;;;;;;20.73;100.00;98774.14;1718222;82;26609;-85
2022/06/17 08:46:37;;;;;;;;;;;;;;;20.77;100.00;98784.29;1731725;83;24456;-85
2022/06/17 08:49:21;;;;;;;;;;;;;;;20.73;100.00;98789.58;1731259;81;20663;-85
2022/06/17 08:51:55;;;;;;;;;;;;;;;20.73;100.00;98790.10;1731397;83;24748;-89
2022/06/17 08:54:23;;;;;;;;;;;;;;;20.78;100.00;98791.77;1730565;81;21991;-87
2022/06/17 08:56:51;;;;;;;;;;;;;;;20.87;100.00;98794.28;1730639;81;26142;-86
2022/06/17 08:59:34;;;;;;;;;;;;;;;21.02;100.00;98794.46;1731308;80;24519;-88
2022/06/17 09:02:05;;;;;;;;;;;;;;;21.07;100.00;98801.45;1756381;80;20524;-86
2022/06/17 09:04:42;;;;;;;;;;;;;;;21.09;100.00;98798.14;1758223;80;25305;-85
2022/06/17 09:07:13;;;;;;;;;;;;;;;21.13;100.00;98805.28;1756208;80;22028;-86
2022/06/17 09:09:46;;;;;;;;;;;;;;;21.13;100.00;98798.63;1757499;80;25952;-85
2022/06/17 09:12:20;;;;;;;;;;;;;;;21.13;100.00;98807.45;1760051;80;25095;-85
2022/06/17 09:14:48;;;;;;;;;;;;;;;21.07;100.00;98809.44;1756497;80;20312;-86
2022/06/17 09:17:22;;;;;;;;;;;;;;;21.04;100.00;98812.44;1756810;80;24823;-87
2022/06/17 09:19:49;;;;;;;;;;;;;;;21.13;100.00;98819.92;1758963;80;22224;-86
2022/06/17 09:22:20;;;;;;;;;;;;;;;21.20;100.00;98824.47;1759270;80;26728;-86
2022/06/17 09:24:46;;;;;;;;;;;;;;;21.13;100.00;98818.59;1757560;80;24592;-85
2022/06/17 09:27:16;;;;;;;;;;;;;;;21.15;100.00;98830.79;1758184;80;20202;-87
2022/06/17 09:29:58;;;;;;;;;;;;;;;21.06;100.00;98838.88;1718131;82;24751;-87
2022/06/17 09:32:36;;;;;;;;;;;;;;;21.04;100.00;98837.73;1719409;82;22007;-87
2022/06/17 09:35:20;;;;;;;;;;;;;;;21.04;99.60;98836.39;1691295;83;25982;-89
2022/06/17 09:37:48;;;;;;;;;;;;;;;20.98;98.70;98836.20;1718223;81;24502;-88
2022/06/17 09:40:25;;;;;;;;;;;;;;;20.95;97.90;98836.02;1696394;83;20322;-89
2022/06/17 09:43:05;;;;;;;;;;;;;;;20.88;97.03;98829.70;1693453;83;24749;-89
2022/06/17 09:45:32;;;;;;;;;;;;;;;20.78;96.16;98834.34;1691131;83;22061;-89
2022/06/17 09:48:06;;;;;;;;;;;;;;;20.78;95.59;98834.34;1701055;83;26597;-89
2022/06/17 09:50:40;;;;;;;;;;;;;;;20.81;95.17;98832.67;1689013;83;24605;-90
2022/06/17 09:53:10;;;;;;;;;;;;;;;20.82;94.83;98831.69;1697725;83;20371;-86
2022/06/17 09:55:55;;;;;;;;;;;;;;;20.88;94.74;98837.69;1718131;81;24730;-86
2022/06/17 09:58:23;;;;;;;;;;;;;;;20.82;94.30;98834.34;1717143;81;22713;-86
2022/06/17 10:00:50;;;;;;;;;;;;;;;20.94;94.10;98842.36;1706849;82;25951;-86
2022/06/17 10:03:27;;;;;;;;;;;;;;;21.12;94.29;98835.55;1689821;83;24562;-86
2022/06/17 10:06:12;;;;;;;;;;;;;;;21.36;94.42;98840.13;1681517;84;20514;-86
2022/06/17 10:08:49;;;;;;;;;;;;;;;21.56;94.11;98842.78;1689089;83;24830;-85
2022/06/17 10:11:19;;;;;;;;;;;;;;;21.64;93.76;98836.14;1689686;83;21958;-86
2022/06/17 10:13:50;;;;;;;;;;;;;;;21.69;93.14;98835.13;1690862;83;26112;-86
2022/06/17 10:19:13;;;;;;;;;;;;;;;21.65;92.12;98842.64;1689439;83;20529;-87
2022/06/17 10:21:56;;;;;;;;;;;;;;;21.69;91.57;98841.80;1688305;84;25462;-87
2022/06/17 10:24:24;;;;;;;;;;;;;;;21.61;90.81;98841.78;1641073;86;21951;-86
2022/06/17 10:26:52;;;;;;;;;;;;;;;21.55;90.03;98845.94;1670085;83;26838;-90
2022/06/17 10:29:23;;;;;;;;;;;;;;;21.59;89.55;98847.30;1689331;83;24571;-90
2022/06/17 10:31:51;;;;;;;;;;;;;;;21.71;89.39;98847.80;1690520;83;20252;-87
2022/06/17 10:34:26;;;;;;;;;;;;;;;21.83;89.24;98852.26;1688933;83;25557;-86
2022/06/17 10:36:54;;;;;;;;;;;;;;;21.91;89.19;98854.93;1687424;83;21975;-87
2022/06/17 10:39:23;;;;;;;;;;;;;;;22.03;89.07;98857.62;1688126;83;25978;-90
2022/06/17 10:41:57;;;;;;;;;;;;;;;22.14;88.78;98859.09;1687741;83;25392;-90
2022/06/17 10:44:25;;;;;;;;;;;;;;;22.10;87.94;98857.25;1687145;83;20804;-90
2022/06/17 10:46:55;;;;;;;;;;;;;;;22.01;87.12;98857.77;1684842;83;24860;-89
2022/06/17 10:49:23;;;;;;;;;;;;;;;22.07;86.97;98856.27;1680545;83;22199;-89
2022/06/17 10:51:51;;;;;;;;;;;;;;;22.03;86.43;98860.28;1690487;84;26143;-89
2022/06/17 10:54:21;;;;;;;;;;;;;;;22.08;85.89;98858.77;1680925;83;25404;-89
2022/06/17 10:56:49;;;;;;;;;;;;;;;22.17;85.36;98858.73;1688329;83;20529;-89
2022/06/17 10:59:17;;;;;;;;;;;;;;;22.19;84.68;98858.91;1685136;83;24747;-89
2022/06/17 11:01:48;;;;;;;;;;;;;;;22.04;83.69;98861.92;1693786;82;22216;-89
2022/06/17 11:04:17;;;;;;;;;;;;;;;22.12;83.64;98859.25;1698509;84;26641;-85
2022/06/17 11:06:50;;;;;;;;;;;;;;;22.18;83.38;98852.41;1697473;83;25238;-86
2022/06/17 11:09:24;;;;;;;;;;;;;;;22.24;83.01;98846.40;1696823;83;20159;-86
2022/06/17 11:12:04;;;;;;;;;;;;;;;22.35;82.80;98845.53;1697198;83;24804;-86
2022/06/17 11:14:47;;;;;;;;;;;;;;;22.42;82.40;98843.02;1663603;85;21991;-86
2022/06/17 11:17:32;;;;;;;;;;;;;;;22.41;81.58;98848.85;1691071;83;26611;-86
2022/06/17 11:20:00;;;;;;;;;;;;;;;22.38;80.72;98847.84;1696798;83;24564;-86
2022/06/17 11:22:28;;;;;;;;;;;;;;;22.30;79.83;98850.55;1698894;83;20213;-87
2022/06/17 11:24:55;;;;;;;;;;;;;;;22.27;79.22;98852.71;1697045;83;24983;-86
2022/06/17 11:27:29;;;;;;;;;;;;;;;22.21;78.63;98852.05;1692284;83;22251;-86
2022/06/17 11:29:57;;;;;;;;;;;;;;;22.16;78.00;98853.91;1695752;83;26118;-86
2022/06/17 11:32:28;;;;;;;;;;;;;;;22.34;77.83;98855.87;1701507;83;24653;-86
2022/06/17 11:34:55;;;;;;;;;;;;;;;22.40;77.14;98859.69;1710275;83;20294;-86
2022/06/17 11:37:23;;;;;;;;;;;;;;;22.43;76.43;98856.16;1700877;83;24731;-85
2022/06/17 11:39:50;;;;;;;;;;;;;;;22.51;76.15;98853.98;1703826;83;23180;-86
2022/06/17 11:42:18;;;;;;;;;;;;;;;22.63;76.24;98851.77;1700851;83;26194;-86
2022/06/17 11:44:56;;;;;;;;;;;;;;;22.73;76.00;98855.92;1699008;83;24498;-87
2022/06/17 11:47:26;;;;;;;;;;;;;;;22.81;75.51;98865.20;1693798;83;20860;-86
2022/06/17 11:49:55;;;;;;;;;;;;;;;22.73;74.23;98865.77;1692465;83;24458;-85
2022/06/17 11:52:26;;;;;;;;;;;;;;;22.79;73.87;98853.89;1701162;83;21991;-85
2022/06/17 11:54:59;;;;;;;;;;;;;;;22.98;73.85;98859.28;1702902;82;26672;-85
2022/06/17 11:57:36;;;;;;;;;;;;;;;23.15;73.72;98861.36;1702541;84;23980;-85
2022/06/17 12:00:07;;;;;;;;;;;;;;;23.24;73.70;98858.45;1701786;82;20866;-85
2022/06/17 12:02:33;;;;;;;;;;;;;;;23.27;72.87;98855.95;1722722;81;24836;-85
2022/06/17 12:05:06;;;;;;;;;;;;;;;23.09;71.35;98862.06;1694453;83;21976;-85
2022/06/17 12:07:42;;;;;;;;;;;;;;;22.80;69.99;98862.20;1688657;83;26679;-89
2022/06/17 12:10:10;;;;;;;;;;;;;;;22.65;69.31;98866.58;1723507;81;24663;-85
2022/06/17 12:12:36;;;;;;;;;;;;;;;22.77;69.20;98859.90;1722388;83;20270;-85
2022/06/17 12:15:12;;;;;;;;;;;;;;;22.71;68.15;98852.59;1718866;82;21142;-86